Almond, Wisconsin
Current Conditions -  °F | °C
As of 6:56 AM on Saturday 01 Nov 2014 (Local Time) from KY50 Reporting Station
Clear Clear  
Wind Chill: 19°   Ceiling: Unl
Heat Index: 19°   Visibility: 10mi
Dew Point: 16°   Wind: 0mph
Humidity: 89%   Direction: NA
Pressure: 30.49"   Gusts: NA
Location:  44.26°N, 89.41°W
Report Text: KY50 011156Z AUTO 00000KT 10SM CLR M07/M09 A3049 RMK AO2 TSNO 50007 T10721088 11050 21077 SLP334
Loading
Personal Weather Stations






























Interactive Weather Map New forecast layout! Learn more

10-Day Weather Forecast

Advertisements
Track Severe Weather on mobile